Big Stone Express — WCX9178 — position and weather

sailwx.info

Track history (hours):
 
Tides and Currents Weather Stations Pressure Air Temp Water Temp Dewpoint Dewpoint Depression Visibility Wind Speed Wind Dir Waves Ship Positions

Big Stone Express

Owner: DELAWARE BAY LAUNCH SERVICE, MILFORD, DE. More information available from US FCC via Universal Licensing System and Coast Guard Vessel Documentation Center.

Last reported at 2018-Jun-24 13:04 UTC. Time now 2018-Jun-25 00:23 UTC.
Position N 38°56' W 075°19'.

Length 25 m; draft 2 m.

MMSI: 36708110.

Date/timePositionNaut miles runAvg speedWind from/ knotsBaromVisibWave heightAir tempDewpointWater temp
2018-Jun-24 13:04N 38°56' W 075°19'0 0.0
2018-Jun-24 12:37N 38°56' W 075°19'0 0.0
2018-Jun-24 12:30N 38°56' W 075°19'0 0.0
2018-Jun-24 12:00N 38°56' W 075°19'0 0.0
2018-Jun-24 11:28N 38°56' W 075°19'0 0.0
2018-Jun-24 11:00N 38°56' W 075°19'0 0.0
2018-Jun-24 10:11N 38°56' W 075°19'0 0.0
2018-Jun-24 10:00N 38°56' W 075°19'0 0.0
2018-Jun-24 09:30N 38°56' W 075°19'0 0.0
2018-Jun-24 09:00N 38°56' W 075°19'0 0.0
2018-Jun-24 08:30N 38°56' W 075°19'0 0.0
2018-Jun-24 08:00N 38°56' W 075°19'0 0.0
2018-Jun-24 07:23N 38°56' W 075°19'0 0.0
2018-Jun-24 07:00N 38°56' W 075°19'0 0.0
2018-Jun-24 06:30N 38°56' W 075°19'0 0.0
2018-Jun-24 05:57N 38°56' W 075°19'0 0.0
2018-Jun-24 02:52N 38°56' W 075°19'6 0.2
2018-Jun-22 14:19N 38°59' W 075°13'5 3.6
2018-Jun-22 12:55N 38°57' W 075°19'0 1.0
2018-Jun-22 12:27N 38°56' W 075°19'0 0.0
2018-Jun-22 11:58N 38°56' W 075°19'0 0.0
2018-Jun-22 11:30N 38°56' W 075°19'0 0.0
2018-Jun-22 11:00N 38°56' W 075°19'0 0.0
2018-Jun-22 10:30N 38°56' W 075°19'0 0.0
2018-Jun-22 10:00N 38°56' W 075°19'0 0.0
2018-Jun-22 09:27N 38°56' W 075°19'0 0.0
2018-Jun-22 08:59N 38°56' W 075°19'0 0.0
2018-Jun-22 08:30N 38°56' W 075°19'0 0.0
2018-Jun-22 07:47N 38°56' W 075°19'0 0.0
2018-Jun-22 07:30N 38°56' W 075°19'0 0.0
2018-Jun-22 07:00N 38°56' W 075°19'0 0.0
2018-Jun-22 06:30N 38°56' W 075°19'0 0.0
2018-Jun-22 06:00N 38°56' W 075°19'0 0.0
2018-Jun-22 05:30N 38°56' W 075°19'0 0.0
2018-Jun-22 05:00N 38°56' W 075°19'0 0.0
2018-Jun-22 04:30N 38°56' W 075°19'0 0.0
2018-Jun-22 03:56N 38°56' W 075°19'0 0.0
2018-Jun-22 03:30N 38°56' W 075°19'0 0.0
2018-Jun-22 03:00N 38°56' W 075°19'0 0.0
2018-Jun-22 02:30N 38°56' W 075°19'0 0.0
2018-Jun-22 02:00N 38°56' W 075°19'0 0.0
2018-Jun-22 01:30N 38°56' W 075°19'0 0.0
2018-Jun-22 00:21N 38°56' W 075°19'0 0.0
2018-Jun-21 23:34N 38°56' W 075°19'0 0.0
2018-Jun-21 12:28N 38°56' W 075°19'0 0.0
2018-Jun-21 11:57N 38°56' W 075°19'0 0.0
2018-Jun-21 10:40N 38°56' W 075°19'0 0.0
2018-Jun-21 10:26N 38°56' W 075°19'0 0.0
2018-Jun-21 09:48N 38°56' W 075°19'0 0.0
2018-Jun-21 09:30N 38°56' W 075°19'0 0.0
2018-Jun-21 08:40N 38°56' W 075°19'0 0.0
2018-Jun-21 08:29N 38°56' W 075°19'0 0.0
2018-Jun-21 06:11N 38°56' W 075°19'0 0.0
2018-Jun-21 05:51N 38°56' W 075°19'0 0.0
2018-Jun-21 03:24N 38°56' W 075°19'0 0.0
2018-Jun-21 02:56N 38°56' W 075°19'0 0.0
2018-Jun-20 23:38N 38°56' W 075°19'0 0.0
2018-Jun-20 23:19N 38°56' W 075°19'0 0.0
2018-Jun-20 22:59N 38°56' W 075°19'0 0.0
2018-Jun-20 22:20N 38°56' W 075°19'0 0.0
2018-Jun-20 22:00N 38°56' W 075°19'0 0.0
2018-Jun-20 21:30N 38°56' W 075°19'0 0.0
2018-Jun-20 21:00N 38°56' W 075°19'0 0.0
2018-Jun-20 20:23N 38°56' W 075°19'0 0.0
2018-Jun-20 19:52N 38°56' W 075°19'2 5.5
2018-Jun-20 19:28N 38°57' W 075°17'1 2.5
2018-Jun-20 19:00N 38°56' W 075°18'1 2.1
2018-Jun-20 18:28N 38°56' W 075°19'0 0.3
2018-Jun-20 17:46N 38°57' W 075°19'517.5
2018-Jun-20 17:30N 38°60' W 075°14'5 0.9
2018-Jun-20 11:55N 38°56' W 075°19'0 0.0
2018-Jun-20 11:31N 38°56' W 075°19'0 0.0
2018-Jun-20 10:30N 38°56' W 075°19'0 0.0
2018-Jun-20 09:58N 38°56' W 075°19'0 0.0
2018-Jun-20 09:29N 38°56' W 075°19'0 0.0
2018-Jun-20 09:01N 38°56' W 075°19'0 0.0
2018-Jun-20 08:30N 38°56' W 075°19'0 0.0
2018-Jun-20 08:00N 38°56' W 075°19'0 0.0
2018-Jun-20 02:38N 38°56' W 075°19'0 0.0
2018-Jun-20 02:30N 38°56' W 075°19'0 0.0
2018-Jun-20 01:57N 38°56' W 075°19'0 0.0
2018-Jun-20 01:30N 38°56' W 075°19'0 0.0
2018-Jun-20 01:00N 38°56' W 075°19'0 0.0
2018-Jun-20 00:28N 38°56' W 075°19'15 0.4
2018-Jun-18 13:12N 38°47' W 075°03'522.9
2018-Jun-18 12:59N 38°51' W 075°08'9 0.2
2018-Jun-16 10:41N 38°56' W 075°17'416.0
2018-Jun-16 10:25N 38°59' W 075°13'6 6.1
2018-Jun-16 09:31N 38°56' W 075°19'0 0.0
2018-Jun-16 09:24N 38°56' W 075°19'0 0.0
2018-Jun-16 09:00N 38°56' W 075°19'0 0.0
2018-Jun-16 08:30N 38°56' W 075°19'0 0.0
2018-Jun-16 07:56N 38°56' W 075°19'0 0.0
2018-Jun-16 06:49N 38°56' W 075°19'0 0.0
2018-Jun-16 06:30N 38°56' W 075°19'0 0.0
2018-Jun-16 05:59N 38°56' W 075°19'0 0.0
2018-Jun-16 05:07N 38°56' W 075°19'0 0.0
2018-Jun-16 05:00N 38°56' W 075°19'0 0.0
2018-Jun-16 04:30N 38°56' W 075°19'20 1.2
2018-Jun-15 11:27N 38°46' W 074°58'1722.0
2018-Jun-15 10:40N 38°56' W 075°16'313.8
2018-Jun-15 10:28N 38°56' W 075°19'0 0.2
2018-Jun-15 09:55N 38°56' W 075°19'0 0.0
2018-Jun-15 09:29N 38°56' W 075°19'0 0.0
2018-Jun-15 09:00N 38°56' W 075°19'0 0.0
2018-Jun-15 08:30N 38°56' W 075°19'0 0.0
2018-Jun-15 08:00N 38°56' W 075°19'0 0.0
2018-Jun-15 07:30N 38°56' W 075°19'0 0.0
2018-Jun-15 07:00N 38°56' W 075°19'0 0.0
2018-Jun-15 06:30N 38°56' W 075°19'0 0.0
2018-Jun-15 06:00N 38°56' W 075°19'0 0.0
2018-Jun-15 05:29N 38°56' W 075°19'0 0.0
2018-Jun-15 05:00N 38°56' W 075°19'0 0.0
2018-Jun-15 04:30N 38°56' W 075°19'0 0.0
2018-Jun-15 04:00N 38°56' W 075°19'0 0.0
2018-Jun-15 03:27N 38°56' W 075°19'0 0.0
2018-Jun-15 03:00N 38°56' W 075°19'0 0.0
2018-Jun-15 02:27N 38°56' W 075°19'0 0.0
2018-Jun-15 02:00N 38°56' W 075°19'0 0.0
2018-Jun-15 01:26N 38°56' W 075°19'  
Track history (hours):
 
Tides and Currents Weather Stations Pressure Air Temp Water Temp Dewpoint Dewpoint Depression Visibility Wind Speed Wind Dir Waves Ship Positions

Big Stone Express

Owner: DELAWARE BAY LAUNCH SERVICE, MILFORD, DE. More information available from US FCC via Universal Licensing System and Coast Guard Vessel Documentation Center.

Last reported at 2018-Jun-24 13:04 UTC. Time now 2018-Jun-25 00:23 UTC.
Position N 38°56' W 075°19'.

Length 25 m; draft 2 m.

MMSI: 36708110.

Date/timePositionNaut miles runAvg speedWind from/ knotsBaromVisibWave heightAir tempDewpointWater temp
2018-Jun-24 13:04N 38°56' W 075°19'0 0.0
2018-Jun-24 12:37N 38°56' W 075°19'0 0.0
2018-Jun-24 12:30N 38°56' W 075°19'0 0.0
2018-Jun-24 12:00N 38°56' W 075°19'0 0.0
2018-Jun-24 11:28N 38°56' W 075°19'0 0.0
2018-Jun-24 11:00N 38°56' W 075°19'0 0.0
2018-Jun-24 10:11N 38°56' W 075°19'0 0.0
2018-Jun-24 10:00N 38°56' W 075°19'0 0.0
2018-Jun-24 09:30N 38°56' W 075°19'0 0.0
2018-Jun-24 09:00N 38°56' W 075°19'0 0.0
2018-Jun-24 08:30N 38°56' W 075°19'0 0.0
2018-Jun-24 08:00N 38°56' W 075°19'0 0.0
2018-Jun-24 07:23N 38°56' W 075°19'0 0.0
2018-Jun-24 07:00N 38°56' W 075°19'0 0.0
2018-Jun-24 06:30N 38°56' W 075°19'0 0.0
2018-Jun-24 05:57N 38°56' W 075°19'0 0.0
2018-Jun-24 02:52N 38°56' W 075°19'6 0.2
2018-Jun-22 14:19N 38°59' W 075°13'5 3.6
2018-Jun-22 12:55N 38°57' W 075°19'0 1.0
2018-Jun-22 12:27N 38°56' W 075°19'0 0.0
2018-Jun-22 11:58N 38°56' W 075°19'0 0.0
2018-Jun-22 11:30N 38°56' W 075°19'0 0.0
2018-Jun-22 11:00N 38°56' W 075°19'0 0.0
2018-Jun-22 10:30N 38°56' W 075°19'0 0.0
2018-Jun-22 10:00N 38°56' W 075°19'0 0.0
2018-Jun-22 09:27N 38°56' W 075°19'0 0.0
2018-Jun-22 08:59N 38°56' W 075°19'0 0.0
2018-Jun-22 08:30N 38°56' W 075°19'0 0.0
2018-Jun-22 07:47N 38°56' W 075°19'0 0.0
2018-Jun-22 07:30N 38°56' W 075°19'0 0.0
2018-Jun-22 07:00N 38°56' W 075°19'0 0.0
2018-Jun-22 06:30N 38°56' W 075°19'0 0.0
2018-Jun-22 06:00N 38°56' W 075°19'0 0.0
2018-Jun-22 05:30N 38°56' W 075°19'0 0.0
2018-Jun-22 05:00N 38°56' W 075°19'0 0.0
2018-Jun-22 04:30N 38°56' W 075°19'0 0.0
2018-Jun-22 03:56N 38°56' W 075°19'0 0.0
2018-Jun-22 03:30N 38°56' W 075°19'0 0.0
2018-Jun-22 03:00N 38°56' W 075°19'0 0.0
2018-Jun-22 02:30N 38°56' W 075°19'0 0.0
2018-Jun-22 02:00N 38°56' W 075°19'0 0.0
2018-Jun-22 01:30N 38°56' W 075°19'0 0.0
2018-Jun-22 00:21N 38°56' W 075°19'0 0.0
2018-Jun-21 23:34N 38°56' W 075°19'0 0.0
2018-Jun-21 12:28N 38°56' W 075°19'0 0.0
2018-Jun-21 11:57N 38°56' W 075°19'0 0.0
2018-Jun-21 10:40N 38°56' W 075°19'0 0.0
2018-Jun-21 10:26N 38°56' W 075°19'0 0.0
2018-Jun-21 09:48N 38°56' W 075°19'0 0.0
2018-Jun-21 09:30N 38°56' W 075°19'0 0.0
2018-Jun-21 08:40N 38°56' W 075°19'0 0.0
2018-Jun-21 08:29N 38°56' W 075°19'0 0.0
2018-Jun-21 06:11N 38°56' W 075°19'0 0.0
2018-Jun-21 05:51N 38°56' W 075°19'0 0.0
2018-Jun-21 03:24N 38°56' W 075°19'0 0.0
2018-Jun-21 02:56N 38°56' W 075°19'0 0.0
2018-Jun-20 23:38N 38°56' W 075°19'0 0.0
2018-Jun-20 23:19N 38°56' W 075°19'0 0.0
2018-Jun-20 22:59N 38°56' W 075°19'0 0.0
2018-Jun-20 22:20N 38°56' W 075°19'0 0.0
2018-Jun-20 22:00N 38°56' W 075°19'0 0.0
2018-Jun-20 21:30N 38°56' W 075°19'0 0.0
2018-Jun-20 21:00N 38°56' W 075°19'0 0.0
2018-Jun-20 20:23N 38°56' W 075°19'0 0.0
2018-Jun-20 19:52N 38°56' W 075°19'2 5.5
2018-Jun-20 19:28N 38°57' W 075°17'1 2.5
2018-Jun-20 19:00N 38°56' W 075°18'1 2.1
2018-Jun-20 18:28N 38°56' W 075°19'0 0.3
2018-Jun-20 17:46N 38°57' W 075°19'517.5
2018-Jun-20 17:30N 38°60' W 075°14'5 0.9
2018-Jun-20 11:55N 38°56' W 075°19'0 0.0
2018-Jun-20 11:31N 38°56' W 075°19'0 0.0
2018-Jun-20 10:30N 38°56' W 075°19'0 0.0
2018-Jun-20 09:58N 38°56' W 075°19'0 0.0
2018-Jun-20 09:29N 38°56' W 075°19'0 0.0
2018-Jun-20 09:01N 38°56' W 075°19'0 0.0
2018-Jun-20 08:30N 38°56' W 075°19'0 0.0
2018-Jun-20 08:00N 38°56' W 075°19'0 0.0
2018-Jun-20 02:38N 38°56' W 075°19'0 0.0
2018-Jun-20 02:30N 38°56' W 075°19'0 0.0
2018-Jun-20 01:57N 38°56' W 075°19'0 0.0
2018-Jun-20 01:30N 38°56' W 075°19'0 0.0
2018-Jun-20 01:00N 38°56' W 075°19'0 0.0
2018-Jun-20 00:28N 38°56' W 075°19'15 0.4
2018-Jun-18 13:12N 38°47' W 075°03'522.9
2018-Jun-18 12:59N 38°51' W 075°08'9 0.2
2018-Jun-16 10:41N 38°56' W 075°17'416.0
2018-Jun-16 10:25N 38°59' W 075°13'6 6.1
2018-Jun-16 09:31N 38°56' W 075°19'0 0.0
2018-Jun-16 09:24N 38°56' W 075°19'0 0.0
2018-Jun-16 09:00N 38°56' W 075°19'0 0.0
2018-Jun-16 08:30N 38°56' W 075°19'0 0.0
2018-Jun-16 07:56N 38°56' W 075°19'0 0.0
2018-Jun-16 06:49N 38°56' W 075°19'0 0.0
2018-Jun-16 06:30N 38°56' W 075°19'0 0.0
2018-Jun-16 05:59N 38°56' W 075°19'0 0.0
2018-Jun-16 05:07N 38°56' W 075°19'0 0.0
2018-Jun-16 05:00N 38°56' W 075°19'0 0.0
2018-Jun-16 04:30N 38°56' W 075°19'20 1.2
2018-Jun-15 11:27N 38°46' W 074°58'1722.0
2018-Jun-15 10:40N 38°56' W 075°16'313.8
2018-Jun-15 10:28N 38°56' W 075°19'0 0.2
2018-Jun-15 09:55N 38°56' W 075°19'0 0.0
2018-Jun-15 09:29N 38°56' W 075°19'0 0.0
2018-Jun-15 09:00N 38°56' W 075°19'0 0.0
2018-Jun-15 08:30N 38°56' W 075°19'0 0.0
2018-Jun-15 08:00N 38°56' W 075°19'0 0.0
2018-Jun-15 07:30N 38°56' W 075°19'0 0.0
2018-Jun-15 07:00N 38°56' W 075°19'0 0.0
2018-Jun-15 06:30N 38°56' W 075°19'0 0.0
2018-Jun-15 06:00N 38°56' W 075°19'0 0.0
2018-Jun-15 05:29N 38°56' W 075°19'0 0.0
2018-Jun-15 05:00N 38°56' W 075°19'0 0.0
2018-Jun-15 04:30N 38°56' W 075°19'0 0.0
2018-Jun-15 04:00N 38°56' W 075°19'0 0.0
2018-Jun-15 03:27N 38°56' W 075°19'0 0.0
2018-Jun-15 03:00N 38°56' W 075°19'0 0.0
2018-Jun-15 02:27N 38°56' W 075°19'0 0.0
2018-Jun-15 02:00N 38°56' W 075°19'0 0.0
2018-Jun-15 01:26N 38°56' W 075°19'  

Dump ship's entire track history